Flight Track Log - Related Links

Times and Time Zones

All times are in EDT time to prevent confusion due to time zone crossing. See the SWA1908 flight status page for this flight to view local times or setup timezone preferences in your user account.

Time Position Orientation Groundspeed Altitude Reporting Facility
EDT Latitude Longitude Course Direction KTS MPH feet Rate Location/Type
Sat 09:28:02 PM 37.7333 -122.2667 307° West 189 217 2,400  Level Northern Cal TRACON
Sat 09:29:02 PM 37.7667 -122.3333 302° West 221 254 3,300 1,650 Climbing Northern Cal TRACON
Sat 09:30:02 PM 37.7333 -122.4000 238° Southwest 240 276 5,700 2,940 Climbing Northern Cal TRACON
Sat 09:31:31 PM 37.6494 -122.4286 195° South 271 312 10,600 3,141 Climbing Oakland Center
Sat 09:32:31 PM 37.5672 -122.3847 157° South 328 377 13,500 3,273 Climbing Oakland Center
Sat 09:33:32 PM 37.4903 -122.3042 140° Southeast 354 407 17,200 3,492 Climbing Oakland Center
Sat 09:34:33 PM 37.4103 -122.2186 140° Southeast 369 425 20,600 3,246 Climbing Oakland Center
Sat 09:35:34 PM 37.3250 -122.1294 140° Southeast 390 449 23,800 2,852 Climbing Oakland Center
Sat 09:36:35 PM 37.2361 -122.0364 140° Southeast 409 471 26,400 2,754 Climbing Oakland Center
Sat 09:37:36 PM 37.1444 -121.9403 140° Southeast 423 487 29,400 3,098 Climbing Oakland Center
Sat 09:38:37 PM 37.0358 -121.8256 140° Southeast 427 491 32,700 1,770 Climbing Oakland Center
Sat 09:39:38 PM 36.9425 -121.7344 142° Southeast 427 491 33,000 148 Climbing Oakland Center
Sat 09:40:39 PM 36.8486 -121.6392 141° Southeast 431 496 33,000  Level Oakland Center
Sat 09:41:40 PM 36.7528 -121.5400 140° Southeast 442 509 33,000  Level Oakland Center
Sat 09:42:40 PM 36.6592 -121.4408 140° Southeast 441 507 33,000  Level Oakland Center
Sat 09:43:41 PM 36.5644 -121.3431 140° Southeast 442 509 33,000  Level Oakland Center
Sat 09:44:42 PM 36.4703 -121.2442 140° Southeast 442 509 33,000  Level Oakland Center
Sat 09:45:43 PM 36.3742 -121.1472 141° Southeast 444 511 33,000  Level Oakland Center
Sat 09:46:44 PM 36.2786 -121.0497 141° Southeast 445 512 33,000  Level Oakland Center
Sat 09:47:45 PM 36.1825 -120.9525 141° Southeast 446 513 33,000  Level Oakland Center
Sat 09:48:45 PM 36.0867 -120.8556 141° Southeast 446 513 33,000  Level Oakland Center
Sat 09:49:46 PM 35.9908 -120.7581 141° Southeast 445 512 33,000  Level Oakland Center
Sat 09:50:47 PM 35.8956 -120.6617 141° Southeast 444 511 33,000  Level Oakland Center
Sat 09:51:48 PM 35.7994 -120.5658 141° Southeast 443 510 33,000  Level Oakland Center
Sat 09:52:49 PM 35.7042 -120.4692 141° Southeast 441 507 33,000  Level Oakland Center
Sat 09:53:50 PM 35.5883 -120.3528 141° Southeast 443 510 33,000 -347 Level Oakland Center
Sat 09:54:50 PM 35.5108 -120.2736 140° Southeast 443 510 32,300 -843 Descending Oakland Center
Sat 09:55:51 PM 35.4100 -120.1814 143° Southeast 454 522 31,300 -984 Descending Oakland Center
Sat 09:56:52 PM 35.3103 -120.0786 140° Southeast 452 520 30,300 -984 Descending Oakland Center
Sat 09:57:53 PM 35.2136 -119.9847 142° Southeast 443 510 29,300 -984 Descending Oakland Center
Sat 09:58:54 PM 35.1183 -119.8906 141° Southeast 438 504 28,300 -1,091 Descending Oakland Center
Sat 09:59:54 PM 35.0197 -119.7667 134° Southeast 426 490 27,100 -1,587 Descending Oakland Center
Sat 10:00:55 PM 34.9411 -119.6619 132° Southeast 420 483 25,100 -2,115 Descending Oakland Center
Sat 10:01:56 PM 34.8667 -119.5597 132° Southeast 409 471 22,800 -2,262 Descending Oakland Center
Sat 10:02:57 PM 34.7933 -119.4619 132° Southeast 398 458 20,500 -2,231 Descending Oakland Center
Sat 10:03:57 PM 34.7219 -119.3661 132° Southeast 390 449 18,300 -2,281 Descending Oakland Center
Sat 10:04:58 PM 34.6542 -119.2753 132° Southeast 377 434 15,900 -2,108 Descending Oakland Center
Sat 10:06:25 PM 34.5622 -119.1544 133° Southeast 355 409 13,100 -1,905 Descending Los Angeles Center
Sat 10:07:26 PM 34.5003 -119.0686 131° Southeast 341 392 11,200 -1,033 Descending Los Angeles Center
Sat 10:08:27 PM 34.4403 -118.9917 133° Southeast 315 362 11,000 -885 Descending Los Angeles Center
Sat 10:09:28 PM 34.3881 -118.9128 129° Southeast 300 345 9,400 -1,805 Descending Los Angeles Center
Sat 10:10:30 PM 34.3422 -118.8083 118° Southeast 291 335 7,300 -1,902 Descending Los Angeles Center
Sat 10:11:31 PM 34.3039 -118.7236 119° Southeast 288 331 5,500 -1,230 Descending Los Angeles Center
Sat 10:12:32 PM 34.2667 -118.6408 119° Southeast 285 328 4,800 -738 Descending Los Angeles Center
Sat 10:13:33 PM 34.2378 -118.5719 117° Southeast 247 284 4,000 -787 Descending Los Angeles Center
Sat 10:14:34 PM 34.2125 -118.5128 117° Southeast 220 253 3,200 -836 Descending Los Angeles Center
Sat 10:15:35 PM 34.2000 -118.4664 108° East 179 206 2,300 -787 Descending Los Angeles Center
Sat 10:16:36 PM 34.1986 -118.4214 92° East 150 173 1,600 -634 Descending Los Angeles Center
Sat 10:17:38 PM 34.1978 -118.3767 91° East 140 161 1,000 -581 Descending Los Angeles Center
Sat 10:19:00 PM 34.2000 -118.3500 140° Southeast  Level FlightAware Approximate
Sat 10:26:00 PM 34.2007 -118.3587 140° Southeast  Level Estimated

Login

Don't have an account? Register now (free) for customized features, flight alerts, and more!